JBU1818 KFLL-KHPN
Flight info
| Callsign | JBU1818 |
|---|---|
| Flight time | N/A |
| Altitude | 37000 |
| Route | FEALX2 ETECK ROWSY Y309 FLRDA SAGGY CHIEZ Q161 KALDA Q108 SIE BOUNO5 |
| Aircraft | A320/M-VGDW/C |
Departure
| Time | 2026-05-03 22:17 |
|---|---|
| Airport | Fort Lauderdale Hollywood International Airport (KFLL) |
Arrival
| Time | N/A |
|---|---|
| Airport | Westchester County Airport (KHPN) |
| Time | Latitude | Longitude | Altitude | Speed | Heading |
|---|---|---|---|---|---|
| 2026-05-03 21:34 | 26.06879 | -80.14258 | 12 ft | 0 kts | 360° |
| 2026-05-03 21:35 | 26.06886 | -80.14162 | 12 ft | 0 kts | 333° |
| 2026-05-03 21:43 | 26.06879 | -80.14158 | 12 ft | 4 kts | 333° |
| 2026-05-03 21:43 | 26.06856 | -80.14144 | 12 ft | 3 kts | 330° |
| 2026-05-03 21:44 | 26.06842 | -80.14133 | 12 ft | 1 kts | 308° |
| 2026-05-03 21:44 | 26.06836 | -80.14121 | 12 ft | 1 kts | 285° |
| 2026-05-03 21:44 | 26.06836 | -80.14120 | 12 ft | 0 kts | 284° |
| 2026-05-03 21:52 | 26.06818 | -80.14185 | 12 ft | 17 kts | 245° |
| 2026-05-03 21:52 | 26.06759 | -80.14294 | 12 ft | 11 kts | 260° |
| 2026-05-03 21:53 | 26.06756 | -80.14387 | 12 ft | 15 kts | 269° |
| 2026-05-03 21:53 | 26.06756 | -80.14506 | 12 ft | 13 kts | 271° |
| 2026-05-03 21:53 | 26.06758 | -80.14592 | 12 ft | 8 kts | 271° |
| 2026-05-03 21:53 | 26.06762 | -80.14687 | 12 ft | 19 kts | 273° |
| 2026-05-03 21:54 | 26.06762 | -80.14845 | 12 ft | 18 kts | 270° |
| 2026-05-03 21:54 | 26.06765 | -80.14972 | 12 ft | 13 kts | 272° |
| 2026-05-03 21:54 | 26.06762 | -80.15099 | 12 ft | 23 kts | 257° |
| 2026-05-03 21:54 | 26.06695 | -80.15254 | 12 ft | 27 kts | 271° |
| 2026-05-03 21:55 | 26.06696 | -80.15444 | 12 ft | 21 kts | 271° |
| 2026-05-03 21:55 | 26.06699 | -80.15583 | 12 ft | 13 kts | 271° |
| 2026-05-03 21:55 | 26.06699 | -80.15593 | 12 ft | 0 kts | 271° |
| 2026-05-03 22:05 | 26.06699 | -80.15594 | 12 ft | 0 kts | 271° |
| 2026-05-03 22:05 | 26.06699 | -80.15619 | 12 ft | 9 kts | 271° |
| 2026-05-03 22:06 | 26.06697 | -80.15678 | 12 ft | 5 kts | 269° |
| 2026-05-03 22:06 | 26.06697 | -80.15680 | 12 ft | 0 kts | 269° |
| 2026-05-03 22:09 | 26.06697 | -80.15682 | 12 ft | 2 kts | 269° |
| 2026-05-03 22:09 | 26.06696 | -80.15752 | 12 ft | 0 kts | 269° |
| 2026-05-03 22:14 | 26.06696 | -80.15754 | 12 ft | 2 kts | 269° |
| 2026-05-03 22:14 | 26.06696 | -80.15766 | 12 ft | 0 kts | 269° |
| 2026-05-03 22:15 | 26.06690 | -80.15807 | 12 ft | 12 kts | 235° |
| 2026-05-03 22:15 | 26.06685 | -80.15813 | 12 ft | 0 kts | 216° |
| 2026-05-03 22:16 | 26.06680 | -80.15816 | 12 ft | 5 kts | 200° |
| 2026-05-03 22:16 | 26.06606 | -80.15813 | 12 ft | 10 kts | 146° |
| 2026-05-03 22:16 | 26.06588 | -80.15770 | 12 ft | 4 kts | 89° |
| 2026-05-03 22:16 | 26.06588 | -80.15542 | 12 ft | 63 kts | 90° |
| 2026-05-03 22:17 | 26.06582 | -80.14801 | 12 ft | 127 kts | 89° |
| 2026-05-03 22:17 | 26.06567 | -80.13686 | 404 ft | 149 kts | 90° |
| 2026-05-03 22:17 | 26.06522 | -80.12524 | 1025 ft | 157 kts | 89° |
| 2026-05-03 22:17 | 26.06584 | -80.11240 | 1545 ft | 177 kts | 82° |
| 2026-05-03 22:18 | 26.06668 | -80.09798 | 2111 ft | 201 kts | 87° |
| 2026-05-03 22:18 | 26.06680 | -80.08109 | 2609 ft | 237 kts | 88° |
| 2026-05-03 22:18 | 26.06699 | -80.06155 | 3181 ft | 272 kts | 88° |
| 2026-05-03 22:18 | 26.06716 | -80.03915 | 3745 ft | 309 kts | 89° |
| 2026-05-03 22:19 | 26.06827 | -80.01430 | 4277 ft | 323 kts | 78° |
| 2026-05-03 22:19 | 26.07632 | -79.99326 | 4718 ft | 272 kts | 50° |
| 2026-05-03 22:19 | 26.08824 | -79.97883 | 5184 ft | 241 kts | 45° |
| 2026-05-03 22:19 | 26.09860 | -79.96562 | 5615 ft | 210 kts | 47° |
| 2026-05-03 22:20 | 26.10823 | -79.95244 | 5743 ft | 234 kts | 47° |
| 2026-05-03 22:20 | 26.11922 | -79.93770 | 5834 ft | 254 kts | 46° |
| 2026-05-03 22:20 | 26.13031 | -79.92288 | 6303 ft | 253 kts | 46° |
| 2026-05-03 22:20 | 26.14179 | -79.90749 | 6831 ft | 268 kts | 47° |
| 2026-05-03 22:21 | 26.15373 | -79.89114 | 7346 ft | 273 kts | 48° |
| 2026-05-03 22:21 | 26.16505 | -79.87435 | 7843 ft | 276 kts | 50° |
| 2026-05-03 22:21 | 26.17658 | -79.85681 | 8354 ft | 280 kts | 50° |
| 2026-05-03 22:21 | 26.18807 | -79.83939 | 8856 ft | 283 kts | 50° |
| 2026-05-03 22:22 | 26.19972 | -79.82162 | 9360 ft | 287 kts | 51° |
| 2026-05-03 22:22 | 26.21146 | -79.80368 | 9863 ft | 291 kts | 51° |
| 2026-05-03 22:22 | 26.22355 | -79.78516 | 10376 ft | 296 kts | 51° |
| 2026-05-03 22:22 | 26.23578 | -79.76643 | 10895 ft | 309 kts | 51° |
| 2026-05-03 22:23 | 26.24861 | -79.74674 | 11418 ft | 322 kts | 52° |
| 2026-05-03 22:23 | 26.26209 | -79.72601 | 11945 ft | 335 kts | 52° |
| 2026-05-03 22:23 | 26.27584 | -79.70482 | 12463 ft | 347 kts | 52° |
| 2026-05-03 22:23 | 26.29021 | -79.68282 | 12982 ft | 359 kts | 50° |
| 2026-05-03 22:24 | 26.30721 | -79.66167 | 13509 ft | 369 kts | 42° |
| 2026-05-03 22:24 | 26.32568 | -79.64122 | 14032 ft | 380 kts | 43° |
| 2026-05-03 22:24 | 26.34419 | -79.61993 | 14406 ft | 390 kts | 44° |
| 2026-05-03 22:24 | 26.36303 | -79.59820 | 14708 ft | 388 kts | 43° |
| 2026-05-03 22:25 | 26.36922 | -79.59109 | 14807 ft | 388 kts | 43° |